Terminal Aerodrome Forecast
Issued by NWS Twin Cities, MN

Home | Current Version | Previous Version | Text Only | Print | Product List | Glossary Off
Versions: 1 2 3 4 5 6 7 8 9 10 11 12 13 14 15 16 17 18 19 20 21 22 23 24 25 26 27 28 29 30 31

000
FTUS43 KMPX 260306 AAA
TAFMSP
TAF AMD
KMSP 260306Z 2603/2706 10009KT P6SM FEW050 SCT250
     FM260600 16007KT 6SM -SHRA VCTS SCT020 BKN035CB
     FM260900 19004KT P6SM SCT020 BKN035
     FM261400 24008KT P6SM SCT250
     FM270300 23005KT P6SM BKN050 OVC200 PROB30 2703/2706 -TSRA
      BKN020CB=

USA.gov is the U.S. government's official web portal to all federal, state and local government web resources and services.